Time;durP1;ratioP1;P1;durP2;ratioP2;P2;SDS_P1;SDS_P2;PMS_P1;PMS_P2;Temp;Humidity;BMP_temperature;BMP_pressure;BME280_temperature;BME280_humidity;BME280_pressure;Samples;Min_cycle;Max_cycle;Signal;HPM_P1;HPM_P2
2023/04/03 00:00:04;;;;;;;5.57;4.43;;;;;20.10;101796.00;;;;2095398;28;20208;-71
2023/04/03 00:01:04;;;;;;;4.90;4.40;;;;;20.10;101773.00;;;;2086626;28;20227;-71
2023/04/03 00:02:04;;;;;;;4.37;3.97;;;;;20.10;101799.00;;;;2078832;28;20216;-70
2023/04/03 00:03:05;;;;;;;4.70;4.23;;;;;20.10;101800.00;;;;2086922;28;20263;-71
2023/04/03 00:04:05;;;;;;;5.10;4.60;;;;;20.10;101795.00;;;;2095310;28;20254;-71
2023/04/03 00:05:06;;;;;;;5.47;4.93;;;;;20.10;101795.00;;;;2096073;28;20208;-71
2023/04/03 00:06:08;;;;;;;6.53;4.70;;;;;20.10;101788.00;;;;2095151;28;20307;-71
2023/04/03 00:07:08;;;;;;;4.40;4.00;;;;;20.10;101791.00;;;;2093042;28;20299;-71
2023/04/03 00:08:09;;;;;;;4.90;4.50;;;;;20.10;101796.00;;;;2095033;28;20215;-71
2023/04/03 00:09:09;;;;;;;4.40;4.00;;;;;20.10;101796.00;;;;2095059;28;20208;-71
2023/04/03 00:10:10;;;;;;;5.23;4.60;;;;;20.00;101796.00;;;;2095225;28;20277;-70
2023/04/03 00:11:10;;;;;;;4.80;4.40;;;;;20.00;101793.00;;;;2094868;28;20223;-71
2023/04/03 00:12:10;;;;;;;4.70;4.30;;;;;20.10;101794.00;;;;2095656;28;20249;-71
2023/04/03 00:13:11;;;;;;;4.50;4.10;;;;;20.10;101793.00;;;;2097962;28;20211;-71
2023/04/03 00:14:11;;;;;;;4.73;4.33;;;;;20.10;101794.00;;;;2098027;28;20243;-71
2023/04/03 00:15:12;;;;;;;4.47;4.07;;;;;20.10;101794.00;;;;2096153;28;20653;-71
2023/04/03 00:16:12;;;;;;;6.17;4.60;;;;;19.60;101792.00;;;;2100329;28;20250;-71
2023/04/03 00:17:12;;;;;;;5.33;4.10;;;;;20.00;101796.00;;;;2095844;28;20218;-71
2023/04/03 00:18:13;;;;;;;4.70;4.20;;;;;20.00;101793.00;;;;2095235;28;20212;-71
2023/04/03 00:19:13;;;;;;;4.77;4.37;;;;;20.00;101792.00;;;;2096036;28;20222;-71
2023/04/03 00:20:13;;;;;;;5.23;4.47;;;;;20.00;101792.00;;;;2095166;28;20241;-70
2023/04/03 00:21:14;;;;;;;4.93;4.07;;;;;20.00;101792.00;;;;2095871;28;20687;-70
2023/04/03 00:22:14;;;;;;;5.27;4.53;;;;;20.00;101789.00;;;;2094616;28;20710;-70
2023/04/03 00:23:15;;;;;;;4.40;4.00;;;;;20.00;101789.00;;;;2096013;28;20482;-71
2023/04/03 00:24:15;;;;;;;3.80;3.50;;;;;20.00;101784.00;;;;2096014;28;20212;-71
2023/04/03 00:25:15;;;;;;;4.03;3.63;;;;;20.00;101787.00;;;;2095368;28;20208;-71
2023/04/03 00:26:16;;;;;;;4.73;3.93;;;;;20.00;101783.00;;;;2097734;28;20537;-71
2023/04/03 00:27:16;;;;;;;4.90;3.87;;;;;20.00;101788.00;;;;2096829;28;20212;-70
2023/04/03 00:28:17;;;;;;;4.20;3.80;;;;;20.00;101785.00;;;;2097577;28;20226;-70
2023/04/03 00:29:17;;;;;;;4.17;3.77;;;;;20.00;101796.00;;;;2097062;28;20208;-71
2023/04/03 00:30:18;;;;;;;4.97;3.90;;;;;20.00;101793.00;;;;2101253;28;20212;-71
2023/04/03 00:31:18;;;;;;;4.22;3.83;;;;;20.00;101793.00;;;;2097353;28;20246;-71
2023/04/03 00:32:19;;;;;;;4.13;3.73;;;;;20.00;101794.00;;;;2096593;28;20203;-71
2023/04/03 00:33:22;;;;;;;3.90;3.60;;;;;20.00;101780.00;;;;2097720;28;20208;-71
2023/04/03 00:34:22;;;;;;;5.65;4.43;;;;;20.00;101788.00;;;;2100223;28;21266;-71
2023/04/03 00:35:22;;;;;;;3.90;3.53;;;;;20.00;101797.00;;;;2098634;28;20361;-71
2023/04/03 00:36:23;;;;;;;3.90;3.50;;;;;20.00;101787.00;;;;2095812;28;20215;-71
2023/04/03 00:37:23;;;;;;;4.07;3.67;;;;;20.00;101783.00;;;;2096898;28;20242;-70
2023/04/03 00:38:23;;;;;;;4.33;4.00;;;;;20.00;101792.00;;;;2097469;28;20667;-71
2023/04/03 00:39:24;;;;;;;4.47;4.07;;;;;20.00;101782.00;;;;2096710;28;20655;-71
2023/04/03 00:40:25;;;;;;;4.13;3.73;;;;;19.90;101792.00;;;;2097610;28;20679;-71
2023/04/03 00:41:25;;;;;;;4.18;3.78;;;;;19.90;101787.00;;;;2096637;28;20724;-71
2023/04/03 00:42:26;;;;;;;3.80;3.50;;;;;19.90;101794.00;;;;2097011;28;20208;-71
2023/04/03 00:43:27;;;;;;;3.90;3.60;;;;;19.90;101794.00;;;;2097451;28;20663;-71
2023/04/03 00:44:33;;;;;;;3.90;3.60;;;;;19.90;101790.00;;;;2104062;28;20705;-70
2023/04/03 00:45:37;;;;;;;4.70;4.20;;;;;19.90;101782.00;;;;2096642;28;20222;-71
2023/04/03 00:46:38;;;;;;;3.72;3.42;;;;;19.90;101795.00;;;;2097475;28;20212;-69
2023/04/03 00:47:38;;;;;;;4.10;3.67;;;;;19.90;101788.00;;;;2097542;28;20204;-70
2023/04/03 00:48:45;;;;;;;4.10;3.63;;;;;19.90;101788.00;;;;2097755;28;20219;-70
2023/04/03 00:49:46;;;;;;;4.13;3.47;;;;;19.90;101795.00;;;;2096820;28;20447;-70
2023/04/03 00:50:46;;;;;;;3.87;3.47;;;;;19.90;101768.00;;;;2098579;28;20226;-71
2023/04/03 00:51:47;;;;;;;4.03;3.67;;;;;19.90;101789.00;;;;2096145;28;20215;-70
2023/04/03 00:52:48;;;;;;;4.27;3.73;;;;;19.90;101788.00;;;;2095744;28;20216;-71
2023/04/03 00:53:51;;;;;;;4.40;4.00;;;;;19.90;101787.00;;;;2080298;28;20230;-70
2023/04/03 00:54:52;;;;;;;4.00;3.60;;;;;19.90;101790.00;;;;2080599;28;20221;-70
2023/04/03 00:55:53;;;;;;;3.90;3.43;;;;;19.90;101784.00;;;;2079608;28;20224;-70
2023/04/03 00:56:53;;;;;;;4.00;3.60;;;;;19.90;101793.00;;;;2088600;28;20213;-71
2023/04/03 00:57:53;;;;;;;3.97;3.50;;;;;19.90;101801.00;;;;2100175;28;20246;-70
2023/04/03 00:58:56;;;;;;;3.60;3.30;;;;;19.90;101796.00;;;;2096696;28;20674;-70
2023/04/03 01:00:06;;;;;;;4.00;3.60;;;;;19.90;101794.00;;;;2096097;28;20270;-70
2023/04/03 01:01:08;;;;;;;3.53;3.22;;;;;19.80;101790.00;;;;2096057;28;20250;-71
2023/04/03 01:02:08;;;;;;;4.15;3.83;;;;;19.90;101797.00;;;;2095427;28;20699;-70
2023/04/03 01:03:09;;;;;;;3.77;3.40;;;;;19.80;101793.00;;;;2096678;28;20213;-71
2023/04/03 01:04:32;;;;;;;3.80;3.40;;;;;19.80;101791.00;;;;2097322;28;20208;-71
2023/04/03 01:05:32;;;;;;;3.63;3.33;;;;;19.80;101783.00;;;;2090375;28;21131;-71
2023/04/03 01:06:35;;;;;;;3.90;3.50;;;;;19.80;101794.00;;;;2095787;28;20215;-71
2023/04/03 01:07:36;;;;;;;3.47;3.17;;;;;19.80;101792.00;;;;2097559;28;20215;-71
2023/04/03 01:08:37;;;;;;;3.88;3.50;;;;;19.80;101795.00;;;;2096635;28;20204;-70
2023/04/03 01:09:37;;;;;;;3.50;3.20;;;;;19.80;101800.00;;;;2096033;28;20231;-70
2023/04/03 01:10:38;;;;;;;3.63;3.33;;;;;19.80;101793.00;;;;2096562;28;20734;-70
2023/04/03 01:11:38;;;;;;;6.50;3.93;;;;;19.80;101802.00;;;;2097856;28;20216;-71
2023/04/03 01:12:40;;;;;;;3.40;3.03;;;;;19.80;101782.00;;;;2099127;28;20201;-71
2023/04/03 01:13:40;;;;;;;4.38;3.97;;;;;19.80;101799.00;;;;2097082;28;20341;-70
2023/04/03 01:14:40;;;;;;;3.53;3.23;;;;;19.80;101798.00;;;;2096742;28;20726;-71
2023/04/03 01:15:41;;;;;;;3.70;3.30;;;;;19.80;101795.00;;;;2097226;28;20205;-71
2023/04/03 01:16:41;;;;;;;3.83;3.43;;;;;19.80;101793.00;;;;2096249;28;20519;-71
2023/04/03 01:17:49;;;;;;;3.93;3.60;;;;;19.80;101789.00;;;;2097257;28;20276;-71
2023/04/03 01:18:50;;;;;;;3.63;3.33;;;;;19.80;101799.00;;;;2095817;28;20200;-70
2023/04/03 01:19:54;;;;;;;4.47;3.67;;;;;19.80;101777.00;;;;2096529;28;20206;-71
2023/04/03 01:21:08;;;;;;;3.53;3.22;;;;;19.80;101804.00;;;;2094795;28;20212;-71
2023/04/03 01:22:15;;;;;;;4.10;3.53;;;;;19.80;101789.00;;;;2083529;28;20296;-71
2023/04/03 01:23:28;;;;;;;3.60;3.08;;;;;19.80;101802.00;;;;2080696;28;20221;-71
2023/04/03 01:24:36;;;;;;;3.35;3.05;;;;;19.80;101800.00;;;;2084032;28;20209;-71
2023/04/03 01:25:44;;;;;;;3.25;2.95;;;;;19.80;101804.00;;;;2095518;28;20220;-70
2023/04/03 01:26:44;;;;;;;3.90;3.50;;;;;19.80;101804.00;;;;2096501;28;20558;-71
2023/04/03 01:27:45;;;;;;;3.67;3.37;;;;;19.80;101812.00;;;;2088982;28;20215;-70
2023/04/03 01:28:45;;;;;;;3.90;3.60;;;;;19.70;101810.00;;;;2095459;28;20711;-71
2023/04/03 01:29:45;;;;;;;4.13;3.27;;;;;19.80;101811.00;;;;2097147;28;20223;-70
2023/04/03 01:30:53;;;;;;;3.97;3.57;;;;;19.70;101819.00;;;;2095547;28;20223;-71
2023/04/03 01:31:58;;;;;;;7.35;3.63;;;;;19.70;101812.00;;;;2096376;28;20303;-70
2023/04/03 01:32:58;;;;;;;3.80;3.45;;;;;19.80;101815.00;;;;2095595;28;20208;-70
2023/04/03 01:33:59;;;;;;;3.33;3.03;;;;;19.80;101807.00;;;;2096317;28;20624;-71
2023/04/03 01:34:59;;;;;;;3.53;3.23;;;;;19.70;101809.00;;;;2095802;28;20801;-70
2023/04/03 01:35:59;;;;;;;3.97;3.03;;;;;19.70;101805.00;;;;2097219;28;20208;-70
2023/04/03 01:37:00;;;;;;;3.70;3.40;;;;;19.80;101802.00;;;;2096539;28;20231;-71
2023/04/03 01:38:00;;;;;;;3.63;3.33;;;;;19.70;101803.00;;;;2096024;28;20212;-71
2023/04/03 01:39:00;;;;;;;3.80;3.50;;;;;19.70;101803.00;;;;2097079;28;20216;-70
2023/04/03 01:40:01;;;;;;;3.60;3.30;;;;;19.70;101807.00;;;;2099977;28;20245;-71
2023/04/03 01:41:01;;;;;;;3.17;2.87;;;;;19.70;101806.00;;;;2097335;28;20218;-70
2023/04/03 01:42:01;;;;;;;3.10;2.90;;;;;19.70;101816.00;;;;2096045;28;20212;-70
2023/04/03 01:43:02;;;;;;;3.73;3.43;;;;;19.70;101812.00;;;;2097022;28;20216;-71
2023/04/03 01:44:03;;;;;;;3.40;3.10;;;;;19.70;101805.00;;;;2096888;28;20216;-71
2023/04/03 01:45:04;;;;;;;3.47;3.20;;;;;19.70;101809.00;;;;2101193;28;20203;-70
2023/04/03 01:46:04;;;;;;;3.60;3.17;;;;;19.70;101807.00;;;;2096934;28;20828;-71
2023/04/03 01:47:07;;;;;;;3.63;3.33;;;;;19.70;101809.00;;;;2095778;28;20241;-70
2023/04/03 01:48:07;;;;;;;3.60;3.30;;;;;19.70;101813.00;;;;2096146;28;20838;-70
2023/04/03 01:49:08;;;;;;;3.37;3.07;;;;;19.70;101818.00;;;;2095889;28;20218;-70
2023/04/03 01:50:08;;;;;;;3.67;3.27;;;;;19.70;101808.00;;;;2096999;28;20208;-70
2023/04/03 01:51:09;;;;;;;3.47;3.17;;;;;19.70;101811.00;;;;2096847;28;20208;-70
2023/04/03 01:52:09;;;;;;;3.77;3.47;;;;;19.70;101810.00;;;;2096426;28;20361;-70
2023/04/03 01:53:09;;;;;;;3.10;2.90;;;;;19.70;101818.00;;;;2096387;28;20594;-70
2023/04/03 01:54:10;;;;;;;3.50;3.20;;;;;19.70;101812.00;;;;2096236;28;20706;-70
2023/04/03 01:55:10;;;;;;;3.30;3.00;;;;;19.70;101811.00;;;;2096711;28;20273;-70
2023/04/03 01:56:10;;;;;;;3.10;2.90;;;;;19.70;101812.00;;;;2096183;28;20201;-70
2023/04/03 01:57:12;;;;;;;3.70;3.40;;;;;19.70;101821.00;;;;2096947;28;20246;-70
2023/04/03 01:58:13;;;;;;;4.05;3.60;;;;;19.70;101810.00;;;;2096484;28;20649;-70
2023/04/03 01:59:13;;;;;;;3.97;3.57;;;;;19.70;101812.00;;;;2096387;28;20239;-70
2023/04/03 02:00:14;;;;;;;2.80;2.60;;;;;19.60;101818.00;;;;2097026;28;20404;-70
2023/04/03 02:01:15;;;;;;;3.30;3.00;;;;;19.60;101818.00;;;;2095983;28;20212;-70
2023/04/03 02:02:15;;;;;;;3.17;2.97;;;;;19.60;101814.00;;;;2096845;28;20459;-70
2023/04/03 02:03:16;;;;;;;3.80;3.47;;;;;19.70;101817.00;;;;2096138;28;20216;-70
2023/04/03 02:04:16;;;;;;;3.80;3.33;;;;;19.60;101825.00;;;;2096036;28;20324;-70
2023/04/03 02:05:16;;;;;;;3.00;2.70;;;;;19.70;101816.00;;;;2096233;28;20309;-70
2023/04/03 02:06:17;;;;;;;3.37;3.07;;;;;19.70;101821.00;;;;2096022;28;20238;-70
2023/04/03 02:07:17;;;;;;;3.63;3.30;;;;;19.60;101823.00;;;;2094739;28;20245;-71
2023/04/03 02:08:20;;;;;;;3.53;3.23;;;;;19.60;101823.00;;;;2096259;28;20212;-70
2023/04/03 02:09:21;;;;;;;3.28;3.05;;;;;18.80;101821.00;;;;2096630;28;20376;-70
2023/04/03 02:10:21;;;;;;;3.03;2.73;;;;;19.60;101832.00;;;;2096113;28;20204;-71
2023/04/03 02:11:21;;;;;;;3.20;2.97;;;;;19.60;101823.00;;;;2095883;28;20738;-70
2023/04/03 02:12:22;;;;;;;3.50;3.20;;;;;19.60;101818.00;;;;2096042;28;20683;-71
2023/04/03 02:13:22;;;;;;;3.47;3.17;;;;;19.60;101815.00;;;;2096209;28;20227;-71
2023/04/03 02:14:23;;;;;;;3.70;3.30;;;;;19.60;101804.00;;;;2096264;28;20235;-71
2023/04/03 02:15:23;;;;;;;3.30;2.90;;;;;19.60;101822.00;;;;2095337;28;20231;-70
2023/04/03 02:16:24;;;;;;;4.07;2.93;;;;;19.60;101827.00;;;;2096973;28;20208;-70
2023/04/03 02:17:24;;;;;;;3.30;3.00;;;;;19.60;101823.00;;;;2096483;28;20208;-71
2023/04/03 02:18:24;;;;;;;3.37;3.07;;;;;19.60;101823.00;;;;2096798;28;20212;-70
2023/04/03 02:19:25;;;;;;;3.57;3.27;;;;;19.60;101805.00;;;;2096883;28;20220;-71
2023/04/03 02:20:26;;;;;;;2.67;2.47;;;;;19.60;101829.00;;;;2096086;28;20212;-70
2023/04/03 02:21:26;;;;;;;3.70;3.37;;;;;19.60;101827.00;;;;2096160;28;20917;-71
2023/04/03 02:22:26;;;;;;;3.30;3.00;;;;;19.60;101827.00;;;;2094894;28;20214;-70
2023/04/03 02:23:26;;;;;;;5.47;3.67;;;;;19.60;101829.00;;;;2096995;28;20208;-70
2023/04/03 02:24:27;;;;;;;3.50;3.10;;;;;19.50;101825.00;;;;2096100;28;20308;-70
2023/04/03 02:25:27;;;;;;;2.90;2.70;;;;;19.50;101828.00;;;;2097056;28;20217;-70
2023/04/03 02:26:28;;;;;;;3.00;2.73;;;;;19.50;101829.00;;;;2096911;28;20216;-70
2023/04/03 02:27:28;;;;;;;3.03;2.73;;;;;19.60;101828.00;;;;2096288;28;20239;-71
2023/04/03 02:28:28;;;;;;;3.07;2.87;;;;;19.60;101826.00;;;;2096867;28;20204;-71
2023/04/03 02:29:29;;;;;;;3.30;3.00;;;;;19.60;101729.00;;;;2096095;28;20875;-71
2023/04/03 02:30:29;;;;;;;3.43;2.73;;;;;19.60;101825.00;;;;2096781;28;20236;-71
2023/04/03 02:31:30;;;;;;;3.07;2.80;;;;;19.50;101823.00;;;;2095869;28;20281;-70
2023/04/03 02:32:30;;;;;;;3.40;3.10;;;;;19.50;101825.00;;;;2096542;28;20204;-70
2023/04/03 02:33:30;;;;;;;3.73;3.20;;;;;19.50;101825.00;;;;2096138;28;20647;-71
2023/04/03 02:34:31;;;;;;;2.97;2.67;;;;;19.50;101823.00;;;;2102147;28;20230;-70
2023/04/03 02:35:31;;;;;;;3.13;2.83;;;;;19.50;101823.00;;;;2096851;28;20220;-70
2023/04/03 02:36:31;;;;;;;3.80;3.00;;;;;19.50;101823.00;;;;2096132;28;20215;-70
2023/04/03 02:37:32;;;;;;;3.50;2.67;;;;;19.50;101826.00;;;;2096855;28;20208;-70
2023/04/03 02:38:32;;;;;;;2.97;2.70;;;;;19.50;101823.00;;;;2095674;28;20223;-70
2023/04/03 02:39:33;;;;;;;3.70;3.10;;;;;19.50;101824.00;;;;2096580;28;20304;-70
2023/04/03 02:40:34;;;;;;;2.97;2.50;;;;;19.50;101828.00;;;;2096586;28;20296;-71
2023/04/03 02:41:37;;;;;;;3.10;2.80;;;;;19.50;101828.00;;;;2096014;28;20219;-71
2023/04/03 02:42:37;;;;;;;2.90;2.70;;;;;19.50;101835.00;;;;2096316;28;20231;-71
2023/04/03 02:43:38;;;;;;;3.00;2.80;;;;;19.50;101830.00;;;;2095833;28;20269;-71
2023/04/03 02:44:38;;;;;;;3.00;2.67;;;;;19.50;101833.00;;;;2096824;28;20698;-71
2023/04/03 02:45:39;;;;;;;3.30;3.00;;;;;19.50;101839.00;;;;2096381;28;20649;-70
2023/04/03 02:46:40;;;;;;;3.43;3.00;;;;;19.50;101836.00;;;;2096992;28;20568;-70
2023/04/03 02:47:40;;;;;;;3.00;2.70;;;;;19.50;101837.00;;;;2098053;28;20227;-70
2023/04/03 02:48:40;;;;;;;3.20;2.90;;;;;19.50;101836.00;;;;2096518;28;20224;-70
2023/04/03 02:49:41;;;;;;;4.33;3.20;;;;;19.50;101827.00;;;;2100628;28;20232;-71
2023/04/03 02:50:41;;;;;;;3.53;2.90;;;;;19.50;101838.00;;;;2100747;28;20204;-70
2023/04/03 02:51:41;;;;;;;2.80;2.33;;;;;19.50;101841.00;;;;2096870;28;20719;-70
2023/04/03 02:52:42;;;;;;;3.10;2.80;;;;;19.50;101837.00;;;;2098075;28;20335;-70
2023/04/03 02:53:42;;;;;;;2.73;2.53;;;;;19.50;101838.00;;;;2098998;28;20204;-70
2023/04/03 02:54:42;;;;;;;2.50;2.30;;;;;19.50;101837.00;;;;2095931;28;20325;-70
2023/04/03 02:55:43;;;;;;;3.13;2.80;;;;;19.40;101841.00;;;;2096633;28;20511;-70
2023/04/03 02:56:44;;;;;;;2.70;2.50;;;;;19.50;101841.00;;;;2096377;28;21132;-69
2023/04/03 02:57:44;;;;;;;2.97;2.67;;;;;19.50;101841.00;;;;2096137;28;20483;-70
2023/04/03 02:58:44;;;;;;;3.00;2.80;;;;;19.50;101840.00;;;;2096192;28;20694;-70
2023/04/03 02:59:45;;;;;;;2.83;2.63;;;;;19.50;101827.00;;;;2095597;28;20221;-69
2023/04/03 03:00:45;;;;;;;2.97;2.67;;;;;19.40;101833.00;;;;2096425;28;20208;-69
2023/04/03 03:01:45;;;;;;;4.13;3.70;;;;;19.50;101837.00;;;;2095193;28;20235;-69
2023/04/03 03:02:46;;;;;;;3.13;2.83;;;;;19.40;101838.00;;;;2096140;28;20204;-70
2023/04/03 03:03:46;;;;;;;2.87;2.63;;;;;19.40;101841.00;;;;2096484;28;20622;-70
2023/04/03 03:04:46;;;;;;;3.17;2.77;;;;;19.40;101840.00;;;;2095054;28;20726;-70
2023/04/03 03:05:47;;;;;;;2.27;2.03;;;;;19.50;101834.00;;;;2095814;28;20762;-69
2023/04/03 03:06:48;;;;;;;2.92;2.50;;;;;19.40;101834.00;;;;2095575;28;20244;-68
2023/04/03 03:07:48;;;;;;;3.67;2.53;;;;;19.40;101841.00;;;;2096027;28;20211;-69
2023/04/03 03:08:49;;;;;;;2.80;2.50;;;;;19.40;101841.00;;;;2094781;28;20247;-69
2023/04/03 03:09:49;;;;;;;2.57;2.37;;;;;19.40;101847.00;;;;2095564;28;20238;-69
2023/04/03 03:10:51;;;;;;;2.90;2.50;;;;;19.40;101845.00;;;;2096209;28;20212;-70
2023/04/03 03:11:51;;;;;;;2.60;2.38;;;;;19.40;101844.00;;;;2099762;28;20580;-70
2023/04/03 03:12:51;;;;;;;2.60;2.40;;;;;19.40;101838.00;;;;2096409;28;20208;-70
2023/04/03 03:13:51;;;;;;;2.60;2.40;;;;;19.40;101841.00;;;;2098263;28;20223;-70
2023/04/03 03:14:52;;;;;;;2.63;2.40;;;;;19.40;101845.00;;;;2097445;28;20223;-69
2023/04/03 03:15:52;;;;;;;2.63;2.43;;;;;19.40;101849.00;;;;2095669;28;20216;-69
2023/04/03 03:16:52;;;;;;;2.60;2.40;;;;;19.40;101842.00;;;;2102267;28;20299;-69
2023/04/03 03:17:53;;;;;;;3.27;2.87;;;;;19.40;101845.00;;;;2096431;28;20335;-69
2023/04/03 03:18:53;;;;;;;2.80;2.60;;;;;19.40;101845.00;;;;2094997;28;20219;-69
2023/04/03 03:19:54;;;;;;;3.20;2.90;;;;;19.50;101850.00;;;;2096556;28;20219;-70
2023/04/03 03:20:55;;;;;;;2.50;2.10;;;;;19.40;101848.00;;;;2098589;28;20253;-69
2023/04/03 03:21:56;;;;;;;2.80;2.60;;;;;19.40;101853.00;;;;2100694;28;20243;-70
2023/04/03 03:22:57;;;;;;;3.35;2.30;;;;;19.40;101849.00;;;;2096172;28;20256;-70
2023/04/03 03:23:57;;;;;;;2.40;2.20;;;;;19.40;101845.00;;;;2097628;28;20724;-70
2023/04/03 03:24:57;;;;;;;2.93;2.57;;;;;19.40;101847.00;;;;2096212;28;20689;-71
2023/04/03 03:25:59;;;;;;;5.17;2.90;;;;;19.40;101850.00;;;;2095482;28;20675;-70
2023/04/03 03:27:00;;;;;;;4.10;2.60;;;;;19.40;101845.00;;;;2096354;28;20743;-70
2023/04/03 03:28:00;;;;;;;3.10;2.80;;;;;19.40;101851.00;;;;2091803;28;20220;-70
2023/04/03 03:29:00;;;;;;;2.90;2.20;;;;;19.40;101845.00;;;;2096246;28;20235;-70
2023/04/03 03:30:01;;;;;;;2.50;2.23;;;;;19.40;101855.00;;;;2095259;28;20266;-70
2023/04/03 03:31:01;;;;;;;2.27;2.00;;;;;19.40;101844.00;;;;2096106;28;20208;-70
2023/04/03 03:32:02;;;;;;;2.17;1.97;;;;;19.40;101843.00;;;;2095896;28;20238;-70
2023/04/03 03:33:02;;;;;;;2.47;2.03;;;;;19.40;101847.00;;;;2095231;28;20705;-71
2023/04/03 03:34:02;;;;;;;2.83;2.03;;;;;19.40;101845.00;;;;2096291;28;20307;-70
2023/04/03 03:35:03;;;;;;;2.33;2.13;;;;;19.40;101849.00;;;;2095497;28;20293;-70
2023/04/03 03:36:03;;;;;;;2.47;2.27;;;;;19.40;101842.00;;;;2096011;28;20231;-70
2023/04/03 03:37:04;;;;;;;3.23;2.43;;;;;19.40;101841.00;;;;2094731;28;20695;-70
2023/04/03 03:38:05;;;;;;;2.30;2.10;;;;;19.30;101844.00;;;;2095092;28;20216;-71
2023/04/03 03:39:05;;;;;;;2.63;2.40;;;;;19.40;101845.00;;;;2096131;28;20454;-70
2023/04/03 03:40:06;;;;;;;2.53;2.23;;;;;19.40;101845.00;;;;2088695;28;20222;-70
2023/04/03 03:41:06;;;;;;;2.30;2.10;;;;;19.40;101844.00;;;;2103578;28;20306;-70
2023/04/03 03:42:07;;;;;;;2.97;2.30;;;;;19.40;101856.00;;;;2098444;28;20450;-71
2023/04/03 03:43:07;;;;;;;2.97;2.70;;;;;19.30;101849.00;;;;2095668;28;20219;-71
2023/04/03 03:44:07;;;;;;;2.80;2.60;;;;;19.30;101843.00;;;;2096488;28;20239;-70
2023/04/03 03:45:08;;;;;;;2.73;2.30;;;;;19.30;101846.00;;;;2088029;28;20220;-70
2023/04/03 03:46:08;;;;;;;2.95;2.33;;;;;19.40;101847.00;;;;2087029;28;20220;-70
2023/04/03 03:47:10;;;;;;;2.90;2.43;;;;;19.30;101841.00;;;;2095450;28;20208;-70
2023/04/03 03:48:11;;;;;;;2.95;2.00;;;;;19.30;101846.00;;;;2095906;28;20212;-71
2023/04/03 03:49:11;;;;;;;2.50;2.27;;;;;19.30;101842.00;;;;2094504;28;20219;-71
2023/04/03 03:50:11;;;;;;;2.20;2.07;;;;;19.30;101847.00;;;;2095391;28;20208;-70
2023/04/03 03:51:11;;;;;;;2.80;2.23;;;;;19.30;101856.00;;;;2096012;28;20213;-70
2023/04/03 03:52:12;;;;;;;2.20;2.00;;;;;19.30;101851.00;;;;2097864;28;20241;-70
2023/04/03 03:53:12;;;;;;;2.60;2.40;;;;;19.30;101851.00;;;;2095663;28;20208;-70
2023/04/03 03:54:13;;;;;;;3.33;2.37;;;;;19.30;101846.00;;;;2095352;28;20348;-70
2023/04/03 03:55:13;;;;;;;2.87;2.10;;;;;19.30;101839.00;;;;2095905;28;20737;-70
2023/04/03 03:56:13;;;;;;;3.37;2.40;;;;;19.30;101883.00;;;;2095312;28;20706;-70
2023/04/03 03:57:14;;;;;;;2.40;2.20;;;;;19.30;101836.00;;;;2096197;28;21176;-70
2023/04/03 03:58:15;;;;;;;3.00;2.30;;;;;19.30;101841.00;;;;2095360;28;20312;-70
2023/04/03 03:59:16;;;;;;;2.70;2.00;;;;;19.30;101838.00;;;;2095651;28;20703;-70
2023/04/03 04:00:16;;;;;;;3.25;2.33;;;;;19.30;101870.00;;;;2095650;28;20262;-70
2023/04/03 04:01:17;;;;;;;2.90;2.30;;;;;19.30;101792.00;;;;2100734;28;20625;-70
2023/04/03 04:02:17;;;;;;;3.00;2.13;;;;;19.30;101850.00;;;;2095669;28;20215;-70
2023/04/03 04:03:17;;;;;;;2.83;2.53;;;;;19.30;101854.00;;;;2095467;28;20204;-70
2023/04/03 04:04:18;;;;;;;2.80;2.37;;;;;19.30;101843.00;;;;2095929;28;20293;-69
2023/04/03 04:05:18;;;;;;;3.30;2.03;;;;;19.30;101852.00;;;;2096218;28;20208;-70
2023/04/03 04:06:18;;;;;;;2.57;2.13;;;;;19.30;101846.00;;;;2096027;28;20264;-70
2023/04/03 04:07:19;;;;;;;3.00;2.23;;;;;19.30;101738.00;;;;2092983;28;20205;-70
2023/04/03 04:08:19;;;;;;;2.23;2.00;;;;;19.30;101848.00;;;;2094867;28;20709;-70
2023/04/03 04:09:20;;;;;;;2.47;2.07;;;;;19.30;101843.00;;;;2095929;28;20208;-70
2023/04/03 04:10:20;;;;;;;2.27;1.90;;;;;19.30;101845.00;;;;2095008;28;20727;-70
2023/04/03 04:11:21;;;;;;;3.97;2.40;;;;;19.30;101847.00;;;;2094993;28;20923;-71
2023/04/03 04:12:22;;;;;;;3.00;2.60;;;;;19.20;101853.00;;;;2094216;28;20204;-70
2023/04/03 04:13:22;;;;;;;3.83;2.07;;;;;19.20;101861.00;;;;2095721;28;20205;-70
2023/04/03 04:14:22;;;;;;;2.50;2.30;;;;;19.30;101857.00;;;;2095916;28;20736;-71
2023/04/03 04:15:23;;;;;;;2.23;2.03;;;;;19.30;101855.00;;;;2095183;28;20695;-70
2023/04/03 04:16:24;;;;;;;2.40;2.00;;;;;19.30;101861.00;;;;2095636;28;20266;-70
2023/04/03 04:17:24;;;;;;;2.83;2.37;;;;;19.20;101859.00;;;;2095207;28;20269;-71
2023/04/03 04:18:24;;;;;;;2.73;1.90;;;;;19.20;101850.00;;;;2095942;28;20216;-70
2023/04/03 04:19:25;;;;;;;2.90;2.13;;;;;19.30;101854.00;;;;2095433;28;20229;-70
2023/04/03 04:20:25;;;;;;;1.87;1.60;;;;;19.20;101857.00;;;;2100847;28;20216;-70
2023/04/03 04:21:26;;;;;;;3.80;2.20;;;;;19.20;101855.00;;;;2095999;28;20229;-71
2023/04/03 04:22:26;;;;;;;2.90;2.00;;;;;19.20;101858.00;;;;2094779;28;20224;-70
2023/04/03 04:23:27;;;;;;;2.07;1.60;;;;;19.20;101859.00;;;;2096015;28;21259;-70
2023/04/03 04:24:27;;;;;;;2.93;1.33;;;;;19.20;101862.00;;;;2095105;28;20219;-70
2023/04/03 04:25:27;;;;;;;2.30;2.10;;;;;19.20;101863.00;;;;2095681;28;20208;-71
2023/04/03 04:26:28;;;;;;;2.13;1.93;;;;;19.20;101855.00;;;;2095044;28;20219;-70
2023/04/03 04:27:28;;;;;;;2.07;1.87;;;;;19.20;101856.00;;;;2095590;28;20223;-70
2023/04/03 04:28:29;;;;;;;3.10;2.03;;;;;19.20;101861.00;;;;2093393;28;20211;-70
2023/04/03 04:29:30;;;;;;;2.33;1.70;;;;;19.20;101856.00;;;;2095055;28;20247;-70
2023/04/03 04:30:30;;;;;;;2.30;2.10;;;;;19.20;101862.00;;;;2095954;28;20658;-70
2023/04/03 04:31:30;;;;;;;2.70;2.07;;;;;19.20;101869.00;;;;2094964;28;20220;-70
2023/04/03 04:32:31;;;;;;;3.10;2.03;;;;;19.20;101860.00;;;;2095833;28;20220;-70
2023/04/03 04:33:31;;;;;;;3.10;2.00;;;;;19.20;101860.00;;;;2094779;28;20304;-70
2023/04/03 04:34:31;;;;;;;2.60;1.93;;;;;19.10;101872.00;;;;2095947;28;20266;-70
2023/04/03 04:35:32;;;;;;;1.63;1.40;;;;;19.20;101854.00;;;;2095827;28;20250;-70
2023/04/03 04:36:32;;;;;;;2.07;1.70;;;;;19.20;101855.00;;;;2095095;28;20219;-70
2023/04/03 04:37:33;;;;;;;1.70;1.50;;;;;19.20;101873.00;;;;2086863;28;20781;-70
2023/04/03 04:38:33;;;;;;;1.90;1.57;;;;;18.80;101870.00;;;;2086045;28;20540;-70
2023/04/03 04:39:34;;;;;;;2.70;1.80;;;;;19.10;101870.00;;;;2095079;28;20706;-70
2023/04/03 04:40:35;;;;;;;3.70;1.90;;;;;18.80;101865.00;;;;2086789;28;20224;-71
2023/04/03 04:41:35;;;;;;;2.77;2.00;;;;;19.20;101883.00;;;;2098381;28;20474;-70
2023/04/03 04:42:36;;;;;;;1.70;1.60;;;;;19.20;101870.00;;;;2095562;28;20600;-71
2023/04/03 04:43:36;;;;;;;2.10;1.83;;;;;19.20;101854.00;;;;2095002;28;20289;-71
2023/04/03 04:44:36;;;;;;;2.20;2.00;;;;;19.20;101890.00;;;;2094950;28;20623;-70
2023/04/03 04:45:37;;;;;;;4.20;1.80;;;;;19.20;101883.00;;;;2094044;28;20269;-71
2023/04/03 04:46:37;;;;;;;2.00;1.77;;;;;19.20;101883.00;;;;2095655;28;20281;-71
2023/04/03 04:47:37;;;;;;;1.70;1.60;;;;;19.20;101884.00;;;;2094909;28;20616;-71
2023/04/03 04:48:38;;;;;;;2.97;1.93;;;;;19.10;101888.00;;;;2095813;28;20677;-70
2023/04/03 04:49:38;;;;;;;3.27;1.83;;;;;19.10;101892.00;;;;2095725;28;20552;-71
2023/04/03 04:50:38;;;;;;;1.77;1.67;;;;;19.10;101888.00;;;;2100971;28;20589;-69
2023/04/03 04:51:38;;;;;;;2.90;1.83;;;;;19.10;101888.00;;;;2096236;28;20847;-71
2023/04/03 04:52:39;;;;;;;2.47;1.53;;;;;19.10;101889.00;;;;2095160;28;20675;-69
2023/04/03 04:53:39;;;;;;;3.17;1.87;;;;;19.20;101895.00;;;;2095873;28;20767;-69
2023/04/03 04:54:40;;;;;;;2.53;1.93;;;;;19.10;101891.00;;;;2094282;28;20273;-69
2023/04/03 04:55:40;;;;;;;2.90;1.77;;;;;19.20;101894.00;;;;2094945;28;20710;-69
2023/04/03 04:56:40;;;;;;;3.10;1.67;;;;;19.20;101894.00;;;;2094704;28;20223;-69
2023/04/03 04:57:41;;;;;;;2.07;1.67;;;;;19.20;101894.00;;;;2094447;28;20227;-69
2023/04/03 04:58:41;;;;;;;1.80;1.37;;;;;19.20;101893.00;;;;2095858;28;20212;-69
2023/04/03 04:59:41;;;;;;;4.27;1.53;;;;;19.20;101890.00;;;;2096319;28;20225;-70
2023/04/03 05:00:42;;;;;;;1.87;1.27;;;;;19.20;101896.00;;;;2095603;28;20246;-70